LFLB 301030Z AUTO 34006KT 310V010 CAVOK 21/10 Q1017 NOSIG

ElémentsDécodage
LFLB Station météo située sur l'aérodrome de CHAMBERY Aix-les-Bains
301030Z émis le 30 du mois à 10h30 UTC
AUTO Bulletin édité par un automate
34006KT vent du 340°, 06 noeuds
310V010 vent de direction variable entre 310° et 010°
CAVOK Ceiling And Visibility OK
- Visibilité de 10 Km ou plus
- Pas de nuage au-dessous de 1500m ou au-dessous de l'altitude minimale du secteur la plus élevée (si>1500m) et absence de CB
- pas de temps présent significatif
21/10 température 21°C, point de rosée 10°C
 soit une humidité relative de 49%
Q1017 la pression au niveau de la mer (QNH) est de 1017 hPa
NOSIG Pas de changement significatif prévu au cours des deux heures suivant l'heure de l'observation